createdAt,value
2022-12-18T00:01:32.300Z,24.73
2022-12-18T00:03:59.234Z,26.15
2022-12-18T00:06:27.947Z,21.98
2022-12-18T00:08:56.046Z,24.20
2022-12-18T00:11:25.131Z,24.52
2022-12-18T00:13:52.372Z,25.05
2022-12-18T00:16:21.789Z,27.05
2022-12-18T00:18:50.142Z,25.92
2022-12-18T00:21:17.067Z,27.33
2022-12-18T00:23:44.916Z,26.77
2022-12-18T00:26:13.946Z,27.75
2022-12-18T00:28:40.527Z,28.65
2022-12-18T00:31:09.428Z,26.13
2022-12-18T00:33:36.939Z,28.20
2022-12-18T00:36:10.734Z,25.38
2022-12-18T00:38:38.041Z,27.70
2022-12-18T00:41:05.383Z,24.88
2022-12-18T00:43:35.389Z,29.88
2022-12-18T00:46:02.240Z,32.45
2022-12-18T00:48:28.763Z,29.98
2022-12-18T00:50:55.235Z,27.75
2022-12-18T00:53:21.730Z,31.50
2022-12-18T00:55:50.572Z,34.65
2022-12-18T00:58:17.883Z,32.13
2022-12-18T01:00:44.406Z,29.27
2022-12-18T01:03:14.350Z,29.02
2022-12-18T01:05:42.346Z,28.00
2022-12-18T01:08:09.086Z,26.35
2022-12-18T01:10:35.685Z,25.55
2022-12-18T01:13:02.102Z,25.38
2022-12-18T01:15:28.482Z,24.42
2022-12-18T01:17:54.959Z,24.48
2022-12-18T01:20:21.750Z,23.65
2022-12-18T01:22:48.214Z,24.33
2022-12-18T01:25:14.631Z,23.60
2022-12-18T01:27:41.065Z,24.25
2022-12-18T01:30:08.130Z,23.63
2022-12-18T01:32:34.550Z,25.35
2022-12-18T01:35:01.040Z,23.40
2022-12-18T01:37:27.670Z,24.77
2022-12-18T01:39:55.237Z,24.17
2022-12-18T01:42:22.089Z,23.13
2022-12-18T01:44:59.311Z,22.95
2022-12-18T01:47:54.338Z,20.25
2022-12-18T01:50:23.514Z,20.60
2022-12-18T01:52:55.866Z,22.13
2022-12-18T01:55:25.350Z,20.73
2022-12-18T01:57:55.207Z,23.27
2022-12-18T02:00:23.595Z,21.63
2022-12-18T02:02:50.329Z,20.10
2022-12-18T02:05:20.052Z,19.48
2022-12-18T02:07:58.778Z,21.00
2022-12-18T02:10:38.839Z,23.75
2022-12-18T02:13:08.291Z,21.95
2022-12-18T02:15:45.201Z,20.38
2022-12-18T02:18:16.975Z,21.52
2022-12-18T02:20:45.285Z,22.95
2022-12-18T02:23:43.261Z,20.17
2022-12-18T02:26:31.850Z,20.63
2022-12-18T02:29:40.476Z,20.88
2022-12-18T02:32:10.571Z,20.17
2022-12-18T02:34:39.611Z,20.98
2022-12-18T02:37:10.395Z,20.50
2022-12-18T02:39:38.455Z,19.25
2022-12-18T02:42:08.795Z,20.33
2022-12-18T02:44:37.041Z,19.02
2022-12-18T02:47:03.582Z,19.83
2022-12-18T02:49:40.197Z,19.15
2022-12-18T02:52:09.573Z,19.23
2022-12-18T02:55:06.905Z,19.60
2022-12-18T02:57:43.021Z,20.63
2022-12-18T03:00:19.685Z,21.27
2022-12-18T03:02:55.633Z,22.05
2022-12-18T03:05:31.593Z,20.60
2022-12-18T03:08:03.092Z,20.90
2022-12-18T03:10:33.202Z,22.63
2022-12-18T03:13:04.937Z,21.20
2022-12-18T03:15:45.355Z,20.52
2022-12-18T03:18:22.558Z,17.77
2022-12-18T03:20:50.361Z,17.05
2022-12-18T03:23:20.761Z,19.70
2022-12-18T03:25:50.746Z,20.35
2022-12-18T03:28:21.956Z,20.67
2022-12-18T03:30:52.995Z,21.48
2022-12-18T03:33:25.158Z,18.23
2022-12-18T03:35:51.620Z,19.27
2022-12-18T03:38:18.196Z,19.77
2022-12-18T03:41:02.713Z,21.17
2022-12-18T03:43:36.670Z,20.80
2022-12-18T03:46:14.476Z,20.13
2022-12-18T03:48:47.860Z,19.58
2022-12-18T03:51:55.593Z,18.67
2022-12-18T03:54:22.823Z,21.60
2022-12-18T03:56:54.708Z,18.02
2022-12-18T03:59:21.951Z,17.80
2022-12-18T04:01:50.525Z,21.40
2022-12-18T04:04:18.792Z,18.77
2022-12-18T04:06:48.954Z,19.23
2022-12-18T04:09:15.523Z,21.23
2022-12-18T04:11:44.667Z,19.77
2022-12-18T04:14:17.382Z,17.73
2022-12-18T04:16:44.573Z,21.63
2022-12-18T04:19:11.148Z,19.38
2022-12-18T04:21:38.033Z,19.42
2022-12-18T04:24:04.603Z,20.38
2022-12-18T04:26:31.001Z,19.48
2022-12-18T04:28:57.567Z,18.15
2022-12-18T04:31:24.004Z,19.02
2022-12-18T04:33:50.424Z,19.35
2022-12-18T04:36:16.867Z,21.90
2022-12-18T04:38:43.303Z,18.45
2022-12-18T04:41:09.710Z,19.90
2022-12-18T04:43:36.556Z,19.02
2022-12-18T04:46:04.970Z,21.38
2022-12-18T04:48:31.460Z,18.88
2022-12-18T04:50:57.893Z,21.02
2022-12-18T04:53:24.684Z,19.73
2022-12-18T04:55:51.129Z,19.15
2022-12-18T04:58:17.771Z,18.73
2022-12-18T05:00:44.483Z,18.52
2022-12-18T05:03:11.123Z,19.27
2022-12-18T05:05:37.545Z,18.30
2022-12-18T05:08:04.143Z,18.00
2022-12-18T05:10:37.547Z,17.60
2022-12-18T05:13:04.616Z,15.95
2022-12-18T05:15:32.713Z,19.20
2022-12-18T05:17:59.662Z,16.25
2022-12-18T05:20:27.589Z,14.95
2022-12-18T05:22:54.449Z,17.33
2022-12-18T05:25:21.585Z,18.60
2022-12-18T05:27:48.188Z,17.88
2022-12-18T05:30:15.342Z,17.15
2022-12-18T05:32:42.008Z,16.00
2022-12-18T05:35:10.064Z,15.57
2022-12-18T05:37:42.527Z,17.67
2022-12-18T05:40:10.262Z,16.10
2022-12-18T05:42:36.743Z,16.20
2022-12-18T05:45:04.684Z,17.38
2022-12-18T05:47:31.180Z,14.85
2022-12-18T05:49:57.811Z,15.75
2022-12-18T05:52:24.418Z,17.70
2022-12-18T05:54:50.871Z,18.00
2022-12-18T05:57:17.302Z,16.40
2022-12-18T05:59:43.864Z,18.10
2022-12-18T06:02:10.420Z,17.50
2022-12-18T06:04:37.084Z,16.92
2022-12-18T06:07:04.312Z,16.08
2022-12-18T06:09:30.702Z,17.52
2022-12-18T06:11:57.158Z,17.15
2022-12-18T06:14:23.667Z,16.25
2022-12-18T06:16:52.835Z,16.10
2022-12-18T06:19:19.302Z,17.77
2022-12-18T06:21:46.424Z,13.90
2022-12-18T06:24:12.810Z,14.02
2022-12-18T06:26:39.888Z,14.48
2022-12-18T06:29:06.762Z,18.05
2022-12-18T06:31:33.438Z,17.70
2022-12-18T06:33:59.979Z,17.83
2022-12-18T06:36:27.012Z,17.83
2022-12-18T06:38:53.377Z,20.23
2022-12-18T06:41:21.653Z,16.35
2022-12-18T06:43:48.165Z,17.88
2022-12-18T06:46:14.796Z,17.27
2022-12-18T06:48:41.419Z,22.20
2022-12-18T06:51:07.918Z,18.58
2022-12-18T06:53:34.469Z,17.85
2022-12-18T06:56:07.876Z,16.77
2022-12-18T06:58:36.203Z,12.75
2022-12-18T07:01:04.965Z,14.48
2022-12-18T07:03:31.892Z,15.98
2022-12-18T07:05:58.420Z,16.00
2022-12-18T07:08:25.623Z,15.80
2022-12-18T07:10:56.052Z,15.23
2022-12-18T07:13:23.076Z,14.93
2022-12-18T07:15:49.544Z,14.68
2022-12-18T07:18:16.045Z,16.63
2022-12-18T07:20:42.471Z,14.45
2022-12-18T07:23:11.677Z,13.75
2022-12-18T07:25:38.358Z,16.15
2022-12-18T07:28:05.319Z,16.42
2022-12-18T07:30:31.858Z,13.98
2022-12-18T07:32:58.337Z,15.32
2022-12-18T07:35:25.348Z,13.30
2022-12-18T07:37:52.168Z,13.95
2022-12-18T07:40:18.617Z,14.73
2022-12-18T07:42:45.363Z,14.50
2022-12-18T07:45:11.867Z,16.85
2022-12-18T07:47:38.830Z,13.98
2022-12-18T07:50:06.239Z,13.95
2022-12-18T07:52:32.666Z,14.48
2022-12-18T07:54:59.706Z,16.67
2022-12-18T08:00:13.235Z,14.55
2022-12-18T08:02:39.881Z,14.15
2022-12-18T08:05:06.541Z,17.50
2022-12-18T08:07:33.625Z,15.25
2022-12-18T08:10:00.040Z,14.23
2022-12-18T08:12:26.435Z,16.27
2022-12-18T08:14:52.924Z,18.10
2022-12-18T08:17:20.729Z,14.57
2022-12-18T08:19:47.167Z,15.85
2022-12-18T08:22:13.587Z,14.95
2022-12-18T08:24:40.485Z,16.52
2022-12-18T08:27:28.278Z,16.13
2022-12-18T08:29:56.185Z,16.50
2022-12-18T08:32:22.605Z,17.77
2022-12-18T08:34:49.021Z,21.02
2022-12-18T08:37:15.958Z,21.05
2022-12-18T08:39:42.585Z,22.27
2022-12-18T08:42:27.770Z,21.50
2022-12-18T08:44:54.148Z,20.58
2022-12-18T08:47:20.528Z,21.10
2022-12-18T08:49:46.984Z,19.38
2022-12-18T08:52:16.180Z,19.63
2022-12-18T08:54:42.571Z,20.13
2022-12-18T08:57:08.982Z,21.05
2022-12-18T08:59:35.696Z,20.15
2022-12-18T09:02:02.264Z,18.95
2022-12-18T09:04:28.887Z,20.85
2022-12-18T09:06:55.305Z,21.13
2022-12-18T09:09:22.096Z,20.83
2022-12-18T09:11:48.504Z,20.75
2022-12-18T09:14:14.907Z,21.85
2022-12-18T09:16:41.388Z,22.98
2022-12-18T09:19:07.887Z,23.77
2022-12-18T09:21:42.134Z,23.02
2022-12-18T09:24:17.175Z,22.95
2022-12-18T09:26:47.035Z,22.35
2022-12-18T09:29:15.423Z,24.05
2022-12-18T09:31:42.755Z,23.25
2022-12-18T09:34:09.155Z,25.33
2022-12-18T09:36:38.705Z,24.67
2022-12-18T09:39:08.584Z,24.63
2022-12-18T09:41:54.512Z,24.52
2022-12-18T09:44:24.924Z,22.70
2022-12-18T09:47:25.108Z,26.85
2022-12-18T09:49:54.730Z,23.75
2022-12-18T09:52:44.588Z,24.88
2022-12-18T09:55:20.078Z,23.60
2022-12-18T09:57:54.354Z,25.92
2022-12-18T10:00:23.055Z,29.35
2022-12-18T10:02:52.068Z,36.85
2022-12-18T10:05:30.258Z,41.65
2022-12-18T10:08:06.014Z,35.95
2022-12-18T10:10:47.816Z,37.95
2022-12-18T10:13:27.562Z,36.28
2022-12-18T10:16:03.138Z,35.33
2022-12-18T10:18:43.440Z,37.40
2022-12-18T10:21:20.045Z,33.92
2022-12-18T10:23:58.146Z,30.48
2022-12-18T10:26:25.272Z,32.63
2022-12-18T10:28:52.313Z,33.15
2022-12-18T10:31:24.544Z,34.05
2022-12-18T10:33:52.127Z,34.53
2022-12-18T10:36:18.582Z,33.35
2022-12-18T10:38:45.145Z,33.33
2022-12-18T10:41:26.749Z,30.35
2022-12-18T10:44:23.774Z,30.70
2022-12-18T10:47:07.474Z,31.95
2022-12-18T10:49:41.083Z,32.03
2022-12-18T10:52:19.679Z,31.92
2022-12-18T10:54:54.469Z,30.85
2022-12-18T10:57:27.017Z,33.22
2022-12-18T10:59:56.457Z,33.00
2022-12-18T11:02:29.935Z,36.55
2022-12-18T11:04:56.617Z,35.30
2022-12-18T11:07:23.061Z,34.25
2022-12-18T11:10:04.403Z,40.17
2022-12-18T11:12:30.973Z,39.08
2022-12-18T11:14:58.667Z,39.72
2022-12-18T11:17:35.751Z,40.35
2022-12-18T11:20:05.336Z,41.78
2022-12-18T11:22:34.489Z,39.58
2022-12-18T11:25:30.942Z,41.35
2022-12-18T11:27:54.539Z,37.97
2022-12-18T11:30:20.907Z,37.55
2022-12-18T11:32:50.028Z,39.35
2022-12-18T11:35:16.856Z,37.60
2022-12-18T11:37:48.471Z,40.95
2022-12-18T11:40:23.916Z,39.30
2022-12-18T11:42:59.698Z,37.35
2022-12-18T11:45:32.498Z,36.75
2022-12-18T11:48:06.617Z,41.60
2022-12-18T11:50:52.436Z,42.22
2022-12-18T11:53:19.223Z,38.35
2022-12-18T11:56:07.107Z,36.70
2022-12-18T11:58:50.441Z,38.50
2022-12-18T12:01:32.571Z,35.53
2022-12-18T12:04:05.784Z,31.70
2022-12-18T12:06:45.918Z,27.48
2022-12-18T12:09:33.645Z,28.15
2022-12-18T12:12:29.493Z,25.50
2022-12-18T12:15:07.881Z,25.15
2022-12-18T12:17:34.214Z,26.55
2022-12-18T12:20:19.310Z,25.35
2022-12-18T12:23:07.063Z,26.83
2022-12-18T12:25:50.567Z,29.17
2022-12-18T12:28:39.808Z,27.83
2022-12-18T12:31:28.199Z,28.05
2022-12-18T12:34:14.905Z,27.73
2022-12-18T12:36:57.290Z,28.48
2022-12-18T12:39:29.445Z,28.73
2022-12-18T12:42:14.350Z,27.83
2022-12-18T12:44:45.266Z,29.60
2022-12-18T12:47:18.654Z,29.58
2022-12-18T12:49:48.422Z,29.75
2022-12-18T12:52:24.747Z,29.65
2022-12-18T12:54:52.116Z,31.83
2022-12-18T12:57:24.568Z,29.33
2022-12-18T13:00:00.496Z,26.23
2022-12-18T13:02:34.730Z,27.33
2022-12-18T13:05:33.193Z,25.65
2022-12-18T13:08:23.338Z,23.75
2022-12-18T13:10:50.705Z,21.23
2022-12-18T13:13:18.704Z,19.25
2022-12-18T13:16:08.611Z,14.20
2022-12-18T13:18:35.396Z,11.88
2022-12-18T13:21:03.790Z,10.30
2022-12-18T13:23:40.747Z,12.68
2022-12-18T13:26:07.503Z,12.38
2022-12-18T13:28:33.804Z,10.00
2022-12-18T13:31:01.953Z,12.35
2022-12-18T13:34:16.400Z,12.52
2022-12-18T13:36:33.535Z,12.57
2022-12-18T13:39:19.701Z,11.57
2022-12-18T13:41:55.038Z,13.88
2022-12-18T13:44:39.957Z,12.80
2022-12-18T13:47:25.699Z,10.60
2022-12-18T13:49:52.346Z,11.50
2022-12-18T13:52:24.859Z,10.63
2022-12-18T13:54:59.013Z,9.75
2022-12-18T13:57:30.061Z,9.27
2022-12-18T14:02:25.546Z,9.88
2022-12-18T14:04:53.342Z,10.48
2022-12-18T14:07:30.596Z,9.90
2022-12-18T14:10:18.679Z,9.65
2022-12-18T14:13:00.706Z,11.75
2022-12-18T14:18:10.644Z,11.07
2022-12-18T14:20:37.907Z,10.95
2022-12-18T14:23:04.339Z,11.55
2022-12-18T14:25:31.872Z,12.60
2022-12-18T14:28:08.617Z,10.70
2022-12-18T14:30:40.526Z,12.27
2022-12-18T14:33:10.348Z,10.63
2022-12-18T14:35:39.340Z,12.90
2022-12-18T14:38:27.104Z,12.32
2022-12-18T14:40:55.199Z,11.63
2022-12-18T14:43:22.217Z,11.57
2022-12-18T14:45:50.486Z,11.68
2022-12-18T14:48:24.200Z,12.85
2022-12-18T14:51:07.182Z,12.27
2022-12-18T14:53:54.933Z,12.32
2022-12-18T14:56:27.539Z,14.20
2022-12-18T14:59:02.319Z,14.80
2022-12-18T15:01:39.831Z,13.55
2022-12-18T15:04:25.885Z,12.75
2022-12-18T15:07:23.527Z,14.98
2022-12-18T15:10:23.085Z,14.98
2022-12-18T15:12:49.592Z,13.02
2022-12-18T15:15:34.643Z,13.23
2022-12-18T15:18:04.696Z,12.43
2022-12-18T15:20:33.150Z,12.98
2022-12-18T15:22:59.522Z,12.88
2022-12-18T15:25:44.096Z,14.95
2022-12-18T15:28:20.967Z,18.42
2022-12-18T15:31:05.925Z,13.85
2022-12-18T15:33:35.243Z,14.00
2022-12-18T15:36:08.817Z,15.80
2022-12-18T15:38:35.329Z,15.85
2022-12-18T15:41:01.743Z,13.93
2022-12-18T15:43:37.855Z,12.75
2022-12-18T15:46:15.854Z,13.65
2022-12-18T15:48:44.401Z,15.00
2022-12-18T15:51:35.832Z,18.30
2022-12-18T15:54:04.770Z,16.85
2022-12-18T15:56:50.406Z,19.73
2022-12-18T15:59:19.351Z,22.27
2022-12-18T16:01:48.295Z,20.55
2022-12-18T16:04:17.078Z,20.63
2022-12-18T16:07:12.815Z,18.90
2022-12-18T16:09:30.345Z,13.05
2022-12-18T16:11:56.795Z,19.35
2022-12-18T16:14:26.908Z,12.45
2022-12-18T16:17:02.196Z,14.23
2022-12-18T16:19:29.334Z,14.18
2022-12-18T16:21:57.301Z,10.65
2022-12-18T16:24:26.097Z,12.65
2022-12-18T16:26:52.977Z,13.27
2022-12-18T16:29:20.018Z,13.48
2022-12-18T16:31:48.605Z,15.18
2022-12-18T16:34:28.865Z,16.65
2022-12-18T16:37:05.314Z,16.45
2022-12-18T16:39:33.973Z,14.77
2022-12-18T16:42:00.533Z,15.70
2022-12-18T16:44:29.115Z,14.15
2022-12-18T16:46:55.564Z,14.00
2022-12-18T16:49:22.358Z,13.85
2022-12-18T16:51:48.931Z,13.88
2022-12-18T16:54:19.065Z,11.23
2022-12-18T16:56:49.661Z,13.52
2022-12-18T16:59:17.707Z,13.25
2022-12-18T17:01:44.636Z,12.60
2022-12-18T17:04:11.356Z,15.15
2022-12-18T17:06:48.619Z,13.23
2022-12-18T17:09:16.973Z,14.07
2022-12-18T17:11:45.336Z,15.63
2022-12-18T17:14:16.530Z,20.70
2022-12-18T17:16:43.437Z,17.95
2022-12-18T17:19:15.310Z,20.08
2022-12-18T17:21:50.510Z,20.52
2022-12-18T17:24:17.515Z,13.18
2022-12-18T17:26:45.628Z,15.10
2022-12-18T17:29:20.788Z,15.32
2022-12-18T17:31:49.717Z,15.45
2022-12-18T17:34:16.372Z,16.17
2022-12-18T17:36:44.120Z,13.13
2022-12-18T17:39:18.204Z,13.55
2022-12-18T17:41:44.632Z,15.85
2022-12-18T17:44:12.580Z,17.38
2022-12-18T17:46:39.794Z,17.10
2022-12-18T17:49:06.375Z,16.40
2022-12-18T17:51:33.029Z,15.65
2022-12-18T17:53:59.839Z,17.58
2022-12-18T17:56:26.368Z,18.13
2022-12-18T17:58:53.578Z,15.50
2022-12-18T18:01:23.460Z,13.68
2022-12-18T18:03:53.535Z,18.40
2022-12-18T18:06:20.588Z,13.85
2022-12-18T18:20:04.194Z,15.32
2022-12-18T18:22:30.636Z,15.85
2022-12-18T18:24:57.234Z,15.52
2022-12-18T18:27:23.756Z,17.13
2022-12-18T18:29:50.239Z,17.67
2022-12-18T18:32:16.636Z,15.43
2022-12-18T18:34:43.129Z,16.15
2022-12-18T18:37:10.484Z,18.75
2022-12-18T18:39:36.931Z,14.70
2022-12-18T18:42:03.541Z,14.20
2022-12-18T18:44:30.048Z,18.15
2022-12-18T18:46:57.802Z,20.05
2022-12-18T18:49:27.222Z,16.98
2022-12-18T18:51:54.789Z,18.23
2022-12-18T18:54:21.344Z,15.88
2022-12-18T18:59:37.224Z,15.88
2022-12-18T19:02:04.270Z,16.85
2022-12-18T19:04:32.729Z,15.93
2022-12-18T19:06:59.202Z,15.27
2022-12-18T19:09:25.971Z,18.42
2022-12-18T19:12:12.032Z,18.20
2022-12-18T19:14:38.547Z,17.67
2022-12-18T19:17:04.977Z,17.52
2022-12-18T19:19:32.108Z,14.23
2022-12-18T19:21:58.566Z,14.25
2022-12-18T19:24:25.990Z,22.48
2022-12-18T19:26:52.428Z,16.67
2022-12-18T19:29:22.904Z,18.17
2022-12-18T19:31:49.565Z,17.40
2022-12-18T19:34:16.079Z,15.35
2022-12-18T19:36:42.549Z,16.38
2022-12-18T19:39:11.566Z,15.52
2022-12-18T19:41:38.129Z,19.52
2022-12-18T19:44:07.705Z,20.13
2022-12-18T19:46:34.995Z,19.88
2022-12-18T19:49:01.513Z,19.05
2022-12-18T19:51:29.593Z,20.67
2022-12-18T19:53:59.361Z,19.38
2022-12-18T19:56:30.607Z,19.70
2022-12-18T19:58:57.187Z,19.55
2022-12-18T20:01:24.634Z,16.88
2022-12-18T20:03:52.991Z,18.65
2022-12-18T20:06:34.656Z,15.18
2022-12-18T20:09:03.962Z,20.55
2022-12-18T20:11:30.972Z,16.98
2022-12-18T20:14:01.270Z,14.20
2022-12-18T20:16:28.111Z,19.20
2022-12-18T20:18:54.816Z,20.65
2022-12-18T20:21:21.269Z,19.92
2022-12-18T20:23:47.707Z,19.70
2022-12-18T20:26:14.285Z,20.08
2022-12-18T20:28:40.839Z,16.73
2022-12-18T20:31:13.811Z,15.40
2022-12-18T20:33:41.655Z,18.42
2022-12-18T20:36:12.546Z,18.40
2022-12-18T20:38:39.542Z,17.58
2022-12-18T20:41:15.244Z,18.65
2022-12-18T20:43:42.266Z,17.23
2022-12-18T20:46:10.661Z,17.80
2022-12-18T20:48:40.168Z,16.48
2022-12-18T20:51:09.539Z,18.63
2022-12-18T20:53:36.315Z,18.63
2022-12-18T20:56:18.901Z,19.25
2022-12-18T20:58:54.600Z,15.85
2022-12-18T21:01:23.278Z,16.52
2022-12-18T21:03:50.401Z,22.23
2022-12-18T21:06:18.318Z,16.92
2022-12-18T21:08:46.019Z,18.25
2022-12-18T21:11:40.323Z,22.30
2022-12-18T21:14:11.354Z,15.35
2022-12-18T21:19:04.134Z,13.32
2022-12-18T21:21:30.631Z,18.83
2022-12-18T21:24:02.332Z,18.75
2022-12-18T21:26:28.945Z,18.85
2022-12-18T21:28:57.440Z,14.45
2022-12-18T21:31:25.821Z,16.65
2022-12-18T21:33:54.591Z,17.20
2022-12-18T21:36:26.787Z,20.27
2022-12-18T21:38:56.394Z,20.05
2022-12-18T21:41:42.365Z,14.27
2022-12-18T21:44:11.400Z,14.90
2022-12-18T21:46:39.630Z,17.75
2022-12-18T21:49:07.502Z,20.13
2022-12-18T21:51:34.648Z,17.35
2022-12-18T21:54:01.080Z,16.73
2022-12-18T21:56:43.704Z,18.88
2022-12-18T21:59:10.473Z,18.33
2022-12-18T22:01:37.490Z,15.10
2022-12-18T22:04:04.381Z,15.52
2022-12-18T22:06:30.895Z,16.85
2022-12-18T22:08:57.559Z,14.35
2022-12-18T22:11:24.008Z,17.33
2022-12-18T22:13:50.559Z,18.23
2022-12-18T22:16:17.042Z,15.13
2022-12-18T22:18:43.537Z,20.23
2022-12-18T22:21:34.413Z,12.63
2022-12-18T22:24:03.092Z,14.68
2022-12-18T22:26:35.141Z,17.65
2022-12-18T22:29:23.372Z,17.65
2022-12-18T22:31:50.052Z,19.42
2022-12-18T22:34:20.584Z,15.07
2022-12-18T22:36:50.190Z,21.10
2022-12-18T22:39:22.952Z,18.75
2022-12-18T22:41:49.886Z,18.80
2022-12-18T22:44:18.082Z,18.33
2022-12-18T22:47:00.668Z,15.25
2022-12-18T22:49:32.263Z,18.38
2022-12-18T22:52:00.230Z,20.35
2022-12-18T22:54:26.876Z,20.17
2022-12-18T22:56:53.279Z,17.20
2022-12-18T22:59:22.823Z,17.13
2022-12-18T23:01:50.699Z,16.52
2022-12-18T23:04:20.679Z,16.52
2022-12-18T23:06:47.595Z,17.92
2022-12-18T23:09:19.176Z,18.50
2022-12-18T23:11:46.274Z,18.30
2022-12-18T23:14:13.065Z,17.70
2022-12-18T23:16:39.503Z,16.50
2022-12-18T23:19:06.161Z,15.68
2022-12-18T23:21:32.639Z,19.35
2022-12-18T23:24:02.743Z,15.93
2022-12-18T23:26:29.344Z,17.48
2022-12-18T23:28:56.679Z,20.23
2022-12-18T23:31:25.909Z,19.08
2022-12-18T23:33:53.710Z,17.65
2022-12-18T23:36:21.150Z,18.40
2022-12-18T23:38:52.383Z,20.25
2022-12-18T23:41:20.812Z,20.48
2022-12-18T23:43:47.244Z,19.90
2022-12-18T23:46:27.124Z,19.25
2022-12-18T23:51:25.183Z,17.30
2022-12-18T23:53:53.388Z,18.77
2022-12-18T23:56:19.942Z,20.05
2022-12-18T23:58:47.092Z,17.42
